Latest Coastal Weather Observations for Cato Island

IDQ60701

Issued at 1:22 pm EST Tuesday 20 August 2019 (issued every 10 minutes, with the page automatically refreshed every 10 minutes)

About coastal observations | Map of coastal stations | Coastal observations for QLD | Marine services | Other Formats
Station Details ID: 200601 Name: CATO ISLAND Lat: -23.25 Lon: 155.54 Height: 6.3 m
Data from the previous 72 hours. | See also: Recent months for locations in Queensland
Date/Time
EST
Wind Sea
Height
m
Swell Vis
km
Cloud Weather Temp
°C
Press
hPa
Rain since
9am
mm
Dir  Spd
kts
Gust
kts
Height
m
Period
s
Dir
20/01:00pm W 23 27 - - - - - - - 21.0 1019.0 -
20/12:30pm SSE 24 28 - - - - - - - 21.1 1019.2 -
20/12:00pm SE 26 29 - - - - - - - 20.9 1019.1 -
20/11:30am S 25 29 - - - - - - - 21.2 1019.4 -
20/11:00am S 25 28 - - - - - - - 21.2 1019.5 -
20/10:30am SSE 24 28 - - - - - - - 21.4 1019.8 -
20/10:00am S 23 27 - - - - - - - 21.2 1019.9 -
20/09:30am SSE 25 29 - - - - - - - 21.4 1019.9 -
20/09:00am SE 27 33 - - - - - - - 21.3 1019.9 -
20/08:30am S 24 28 - - - - - - - 21.6 1019.5 -
20/08:00am S 23 27 - - - - - - - 21.3 1019.3 -
20/07:30am S 21 25 - - - - - - - 21.3 1019.2 -
20/07:00am S 23 27 - - - - - - - 21.0 1018.8 -
20/06:30am N 24 28 - - - - - - - 21.0 1018.5 -
20/06:00am WNW 24 28 - - - - - - - 21.0 1018.2 -
20/05:30am S 24 29 - - - - - - - 21.0 1018.0 -
20/05:11am - 15 25 - - - - - - - 21.0 1017.6 -
20/05:00am S 12 14 - - - - - - - 20.8 1017.8 -
20/04:30am NW 13 15 - - - - - - - 20.5 1017.7 -
20/04:00am SSW 13 16 - - - - - - - 20.3 1017.9 -
20/03:30am SE 16 18 - - - - - - - 20.5 1018.2 -
20/03:00am SSW 14 16 - - - - - - - 19.9 1018.3 -
20/02:30am ESE 11 14 - - - - - - - 19.4 1018.3 -
20/02:00am SSW 7 8 - - - - - - - 19.8 1017.6 -
20/01:30am SE 5 7 - - - - - - - 19.3 1017.9 -
20/01:00am N 8 10 - - - - - - - 18.8 1018.6 -
20/12:30am SW 5 7 - - - - - - - 18.4 1019.0 -
20/12:00am NNW 5 6 - - - - - - - 18.7 1018.8 -
 
Date/Time
EST
Wind Sea
Height
m
Swell Vis
km
Cloud Weather Temp
°C
Press
hPa
Rain since
9am
mm
Dir  Spd
kts
Gust
kts
Height
m
Period
s
Dir
19/11:30pm W 7 9 - - - - - - - 19.7 1018.5 -
19/11:00pm SSW 7 9 - - - - - - - 19.8 1018.4 -
19/10:30pm SW 7 8 - - - - - - - 19.7 1018.5 -
19/10:00pm - 5 7 - - - - - - - 19.7 1018.6 -
19/09:30pm N 3 7 - - - - - - - 19.3 1018.5 -
19/09:00pm CALM 0 0 - - - - - - - 19.6 1018.7 -
19/08:30pm S 1 3 - - - - - - - 19.4 1018.6 -
19/08:00pm S 1 4 - - - - - - - 20.1 1018.5 -
19/07:30pm - 2 4 - - - - - - - 20.2 1018.3 -
19/07:00pm - 5 6 - - - - - - - 20.4 1018.2 -
19/06:30pm - 5 6 - - - - - - - 20.7 1018.0 -
19/06:00pm - 5 6 - - - - - - - 20.4 1017.6 -
19/05:30pm WSW 5 6 - - - - - - - 20.6 1017.5 -
19/05:00pm ESE 4 5 - - - - - - - 20.8 1017.2 -
19/04:30pm S 4 6 - - - - - - - 21.1 1017.0 -
19/04:00pm WSW 4 5 - - - - - - - 21.7 1016.5 -
19/03:30pm S 4 5 - - - - - - - 21.9 1016.3 -
19/03:00pm SSW 5 6 - - - - - - - 22.3 1016.1 -
19/02:30pm S 5 7 - - - - - - - 22.3 1016.0 -
19/02:00pm SSE 5 7 - - - - - - - 22.6 1016.1 -
19/01:30pm W 6 7 - - - - - - - 22.6 1016.2 -
19/01:00pm SSW 5 7 - - - - - - - 23.3 1016.7 -
19/12:30pm WNW 6 7 - - - - - - - 22.6 1017.0 -
19/12:00pm WSW 4 6 - - - - - - - 23.3 1017.3 -
19/11:30am SE 5 6 - - - - - - - 23.1 1017.8 -
19/11:00am SE 5 6 - - - - - - - 22.9 1018.2 -
19/10:30am E 7 9 - - - - - - - 23.0 1018.6 -
19/10:00am SSE 7 8 - - - - - - - 22.6 1018.9 -
19/09:30am - - - - - - - - - - 22.8 1019.1 -
19/09:00am - - - - - - - - - - 21.6 1018.8 -
19/08:30am - - - - - - - - - - 21.7 1018.9 -
19/08:00am - - - - - - - - - - 21.5 1018.6 -
19/07:30am - 7 8 - - - - - - - 21.3 1018.7 -
19/07:00am - - - - - - - - - - 21.0 1018.6 -
19/06:30am - - - - - - - - - - 20.8 1018.6 -
19/06:00am - - - - - - - - - - 20.4 1018.3 -
19/05:30am - - - - - - - - - - 20.3 1018.3 -
19/05:00am - - - - - - - - - - 20.3 1017.9 -
19/04:30am - 6 8 - - - - - - - 20.3 1017.9 -
19/04:00am - 8 11 - - - - - - - 20.1 1017.9 -
19/03:30am - - - - - - - - - - 20.2 1017.9 -
19/03:00am - - - - - - - - - - 20.1 1017.7 -
19/02:30am - - - - - - - - - - 20.0 1018.1 -
19/02:00am - - - - - - - - - - 20.0 1018.3 -
19/01:30am - - - - - - - - - - 20.0 1018.6 -
19/01:00am - - - - - - - - - - 20.1 1018.8 -
19/12:30am - - - - - - - - - - 20.0 1019.2 -
19/12:00am - - - - - - - - - - 20.0 1019.2 -
 
Date/Time
EST
Wind Sea
Height
m
Swell Vis
km
Cloud Weather Temp
°C
Press
hPa
Rain since
9am
mm
Dir  Spd
kts
Gust
kts
Height
m
Period
s
Dir
18/11:30pm - - - - - - - - - - 20.3 1019.3 -
18/11:00pm - - - - - - - - - - 20.3 1019.1 -
18/10:30pm - - - - - - - - - - 20.2 1019.2 -
18/10:00pm - - - - - - - - - - 20.4 1019.1 -
18/09:30pm - - - - - - - - - - 20.5 1019.0 -
18/09:00pm - - - - - - - - - - 20.5 1019.1 -
18/08:30pm - - - - - - - - - - 20.5 1019.1 -
18/08:00pm - - - - - - - - - - 20.4 1018.9 -
18/07:30pm - - - - - - - - - - 20.4 1018.7 -
18/07:00pm - - - - - - - - - - 20.4 1018.3 -
18/06:30pm - - - - - - - - - - 20.5 1018.3 -
18/06:00pm - - - - - - - - - - 20.6 1018.1 -
18/05:30pm - - - - - - - - - - 20.7 1018.2 -
18/05:00pm - 11 14 - - - - - - - 20.5 1018.0 -
18/04:30pm - - - - - - - - - - 20.6 1017.8 -
18/04:00pm - - - - - - - - - - 20.8 1017.6 -
18/03:30pm - - - - - - - - - - 20.8 1017.6 -
18/03:00pm - - - - - - - - - - 21.1 1017.6 -
18/02:30pm - - - - - - - - - - 21.0 1018.1 -
18/02:00pm - - - - - - - - - - 21.3 1018.2 -
18/01:30pm - - - - - - - - - - 21.4 1018.6 -
18/01:00pm - - - - - - - - - - 21.7 1018.8 -
18/12:30pm - - - - - - - - - - 22.0 1019.1 -
18/12:00pm - - - - - - - - - - 21.4 1019.3 -
18/11:30am - - - - - - - - - - 21.3 1019.7 -
18/11:00am - - - - - - - - - - 21.4 1019.9 -
18/10:30am - - - - - - - - - - 21.4 1020.4 -
18/10:00am - - - - - - - - - - 21.2 1020.3 -
18/09:30am - - - - - - - - - - 21.4 1020.7 -
18/09:00am - - - - - - - - - - 21.3 1020.5 -
18/08:30am - - - - - - - - - - 21.2 1020.6 -
18/08:00am - - - - - - - - - - 21.0 1020.3 -
18/07:30am - - - - - - - - - - 20.8 1020.3 -
18/07:00am - - - - - - - - - - 20.5 1019.9 -
18/06:30am - - - - - - - - - - 20.1 1019.6 -
18/06:00am - - - - - - - - - - 19.8 1019.1 -
18/05:30am - - - - - - - - - - 19.6 1018.8 -
18/05:00am - - - - - - - - - - 19.6 1018.4 -
18/04:30am - - - - - - - - - - 19.6 1018.3 -
18/04:00am - - - - - - - - - - 19.6 1018.1 -
18/03:30am - - - - - - - - - - 19.6 1018.2 -
18/03:00am - - - - - - - - - - 19.5 1018.3 -
18/02:30am - - - - - - - - - - 19.5 1018.3 -
18/02:00am - - - - - - - - - - 19.8 1018.7 -
18/01:30am - - - - - - - - - - 19.7 1018.9 -
18/01:00am - - - - - - - - - - 19.8 1019.1 -
18/12:30am - - - - - - - - - - 19.8 1019.5 -
18/12:00am - - - - - - - - - - 19.9 1019.6 -
 
Date/Time
EST
Wind Sea
Height
m
Swell Vis
km
Cloud Weather Temp
°C
Press
hPa
Rain since
9am
mm
Dir  Spd
kts
Gust
kts
Height
m
Period
s
Dir
17/11:30pm - - - - - - - - - - 19.9 1019.8 -
17/11:00pm - - - - - - - - - - 19.9 1019.8 -
17/10:30pm - - - - - - - - - - 20.0 1019.9 -
17/10:00pm - - - - - - - - - - 20.0 1019.7 -
17/09:30pm - - - - - - - - - - 19.9 1019.8 -
17/09:00pm - - - - - - - - - - 20.0 1019.7 -
17/08:30pm - - - - - - - - - - 20.0 1019.6 -
17/08:00pm - - - - - - - - - - 20.0 1019.4 -
17/07:30pm - - - - - - - - - - 20.2 1019.4 -
17/07:00pm - - - - - - - - - - 20.1 1019.1 -
17/06:30pm - - - - - - - - - - 20.2 1018.8 -
17/06:00pm - - - - - - - - - - 20.2 1018.3 -
17/05:30pm - - - - - - - - - - 20.3 1018.0 -
17/05:00pm - - - - - - - - - - 20.3 1017.7 -
17/04:30pm - - - - - - - - - - 20.4 1017.7 -
17/04:00pm - - - - - - - - - - 20.5 1017.5 -
17/03:30pm - - - - - - - - - - 20.7 1017.5 -
17/03:00pm - - - - - - - - - - 20.8 1017.4 -
17/02:30pm - - - - - - - - - - 20.8 1017.7 -
17/02:00pm - - - - - - - - - - 20.9 1017.9 -
17/01:30pm - - - - - - - - - - 21.2 1018.3 -

Other formats

Comma delimited format used in spreadsheet applications
http://www.bom.gov.au/fwo/IDQ60701/IDQ60701.94394.axf

JavaScript Object Notation format (JSON) in row-major order
http://www.bom.gov.au/fwo/IDQ60701/IDQ60701.94394.json

Data quality

Most of these data are generated automatically and are frequently updated. Quality checks on data are not normally performed. It is possible for incorrect values to appear. Refer to information at About Latest Weather Observations and please check the disclaimer before using these data.